createdAt,value
2019-04-20T00:00:48.797Z,20.90
2019-04-20T00:03:26.007Z,21.63
2019-04-20T00:06:01.476Z,20.23
2019-04-20T00:08:41.169Z,18.33
2019-04-20T00:11:25.479Z,18.33
2019-04-20T00:14:04.091Z,18.80
2019-04-20T00:16:35.794Z,18.67
2019-04-20T00:19:17.232Z,20.70
2019-04-20T00:22:00.299Z,20.43
2019-04-20T00:25:00.460Z,23.67
2019-04-20T00:27:54.588Z,21.73
2019-04-20T00:30:32.429Z,20.43
2019-04-20T00:33:14.718Z,18.77
2019-04-20T00:35:42.547Z,18.80
2019-04-20T00:38:21.056Z,22.43
2019-04-20T00:41:02.675Z,20.60
2019-04-20T00:43:40.527Z,19.90
2019-04-20T00:46:26.277Z,19.47
2019-04-20T00:49:07.060Z,20.13
2019-04-20T00:51:52.765Z,20.27
2019-04-20T00:54:13.587Z,19.73
2019-04-20T00:56:53.263Z,20.47
2019-04-20T00:59:54.200Z,21.70
2019-04-20T01:02:20.764Z,19.97
2019-04-20T01:05:05.442Z,20.87
2019-04-20T01:07:39.499Z,18.83
2019-04-20T01:10:13.179Z,19.40
2019-04-20T01:12:53.925Z,18.13
2019-04-20T01:15:38.661Z,17.70
2019-04-20T01:18:10.771Z,18.97
2019-04-20T01:20:47.371Z,16.97
2019-04-20T01:23:34.642Z,18.27
2019-04-20T01:26:09.310Z,18.40
2019-04-20T01:28:54.190Z,19.57
2019-04-20T01:31:29.596Z,18.57
2019-04-20T01:34:08.361Z,17.27
2019-04-20T01:36:59.909Z,17.87
2019-04-20T01:39:28.418Z,17.70
2019-04-20T01:41:58.805Z,18.37
2019-04-20T01:44:41.643Z,17.97
2019-04-20T01:47:15.430Z,18.03
2019-04-20T01:49:59.899Z,17.97
2019-04-20T01:52:48.279Z,19.73
2019-04-20T01:55:56.069Z,18.40
2019-04-20T01:58:36.359Z,17.70
2019-04-20T02:01:09.732Z,17.90
2019-04-20T02:03:52.486Z,18.03
2019-04-20T02:06:35.558Z,18.37
2019-04-20T02:09:15.255Z,19.70
2019-04-20T02:11:51.788Z,19.93
2019-04-20T02:14:37.073Z,19.60
2019-04-20T02:17:18.068Z,19.87
2019-04-20T02:20:07.868Z,21.27
2019-04-20T02:22:42.168Z,22.80
2019-04-20T02:25:03.821Z,20.00
2019-04-20T02:27:47.104Z,21.43
2019-04-20T02:30:59.623Z,20.40
2019-04-20T02:33:43.065Z,22.40
2019-04-20T02:36:20.621Z,22.40
2019-04-20T02:39:21.125Z,20.73
2019-04-20T02:41:51.766Z,20.60
2019-04-20T02:44:33.882Z,24.70
2019-04-20T02:47:14.729Z,23.33
2019-04-20T02:49:54.191Z,20.23
2019-04-20T02:52:29.737Z,19.97
2019-04-20T02:55:14.851Z,18.87
2019-04-20T02:57:47.298Z,23.07
2019-04-20T03:00:22.036Z,22.83
2019-04-20T03:02:46.160Z,22.93
2019-04-20T03:05:26.254Z,23.10
2019-04-20T03:08:08.736Z,20.47
2019-04-20T03:11:00.758Z,23.50
2019-04-20T03:13:31.993Z,21.30
2019-04-20T03:16:12.294Z,22.63
2019-04-20T03:18:50.867Z,25.67
2019-04-20T03:21:38.087Z,24.10
2019-04-20T03:24:18.901Z,20.87
2019-04-20T03:26:55.781Z,21.17
2019-04-20T03:29:55.173Z,26.23
2019-04-20T03:35:29.858Z,25.53
2019-04-20T03:37:55.340Z,21.47
2019-04-20T03:40:24.488Z,22.30
2019-04-20T03:42:48.668Z,20.50
2019-04-20T03:45:28.120Z,19.77
2019-04-20T03:48:17.144Z,17.97
2019-04-20T03:51:04.337Z,18.27
2019-04-20T03:53:59.118Z,19.20
2019-04-20T03:56:54.767Z,18.60
2019-04-20T03:59:53.307Z,19.20
2019-04-20T04:02:37.881Z,20.83
2019-04-20T04:05:08.806Z,19.73
2019-04-20T04:07:36.997Z,18.57
2019-04-20T04:10:21.413Z,19.30
2019-04-20T04:13:18.795Z,18.37
2019-04-20T04:16:02.627Z,18.43
2019-04-20T04:18:39.462Z,18.97
2019-04-20T04:21:22.074Z,17.40
2019-04-20T04:24:05.579Z,18.57
2019-04-20T04:26:48.883Z,18.07
2019-04-20T04:29:38.442Z,18.87
2019-04-20T04:32:23.829Z,18.30
2019-04-20T04:34:51.446Z,18.70
2019-04-20T04:37:29.329Z,19.60
2019-04-20T04:40:14.916Z,19.30
2019-04-20T04:42:46.580Z,21.27
2019-04-20T04:45:10.689Z,19.93
2019-04-20T04:47:45.339Z,20.93
2019-04-20T04:50:26.185Z,21.60
2019-04-20T04:53:09.392Z,21.03
2019-04-20T04:55:47.761Z,25.00
2019-04-20T04:58:19.638Z,24.90
2019-04-20T05:01:04.497Z,18.87
2019-04-20T05:03:54.141Z,19.53
2019-04-20T05:06:31.808Z,20.10
2019-04-20T05:09:00.244Z,19.53
2019-04-20T05:11:36.642Z,22.73
2019-04-20T05:14:21.646Z,24.70
2019-04-20T05:17:07.679Z,24.23
2019-04-20T05:19:55.292Z,24.87
2019-04-20T05:22:32.140Z,24.57
2019-04-20T05:25:18.442Z,24.23
2019-04-20T05:28:03.024Z,26.97
2019-04-20T05:30:20.843Z,26.03
2019-04-20T05:33:06.028Z,23.87
2019-04-20T05:36:01.841Z,22.53
2019-04-20T05:38:41.979Z,22.53
2019-04-20T05:41:11.427Z,22.07
2019-04-20T05:44:02.101Z,21.90
2019-04-20T05:46:42.310Z,20.40
2019-04-20T05:49:21.907Z,20.97
2019-04-20T05:51:57.724Z,18.73
2019-04-20T05:54:39.146Z,18.13
2019-04-20T05:57:23.595Z,16.87
2019-04-20T06:00:05.254Z,17.23
2019-04-20T06:02:34.742Z,18.67
2019-04-20T06:05:21.993Z,17.27
2019-04-20T06:07:54.819Z,17.37
2019-04-20T06:10:36.130Z,17.27
2019-04-20T06:13:17.752Z,17.63
2019-04-20T06:16:13.955Z,18.60
2019-04-20T06:19:10.806Z,16.27
2019-04-20T06:21:44.266Z,18.00
2019-04-20T06:24:26.516Z,15.87
2019-04-20T06:27:03.249Z,15.17
2019-04-20T06:29:43.906Z,16.40
2019-04-20T06:32:28.244Z,17.13
2019-04-20T06:35:04.650Z,15.03
2019-04-20T06:37:39.128Z,15.03
2019-04-20T06:40:39.782Z,15.53
2019-04-20T06:42:58.604Z,15.30
2019-04-20T06:45:44.447Z,15.03
2019-04-20T06:48:29.091Z,13.70
2019-04-20T06:50:50.805Z,14.03
2019-04-20T06:53:43.617Z,14.70
2019-04-20T06:56:31.141Z,14.57
2019-04-20T06:59:11.956Z,14.10
2019-04-20T07:01:54.635Z,15.67
2019-04-20T07:07:11.377Z,15.13
2019-04-20T07:12:32.955Z,15.60
2019-04-20T07:15:17.748Z,13.77
2019-04-20T07:18:06.151Z,12.63
2019-04-20T07:23:35.264Z,12.03
2019-04-20T07:26:16.981Z,11.90
2019-04-20T07:29:01.884Z,13.30
2019-04-20T07:31:29.645Z,13.20
2019-04-20T07:34:15.685Z,11.67
2019-04-20T07:37:18.674Z,11.00
2019-04-20T07:39:34.742Z,10.97
2019-04-20T07:42:19.258Z,11.20
2019-04-20T07:45:01.562Z,10.68
2019-04-20T07:47:40.591Z,11.55
2019-04-20T07:50:09.031Z,11.83
2019-04-20T07:52:43.866Z,13.22
2019-04-20T07:55:40.432Z,12.15
2019-04-20T07:58:05.256Z,12.82
2019-04-20T08:01:04.239Z,12.65
2019-04-20T08:03:42.801Z,13.20
2019-04-20T08:06:20.080Z,12.85
2019-04-20T08:09:07.353Z,11.93
2019-04-20T08:11:55.153Z,11.53
2019-04-20T08:14:44.446Z,11.53
2019-04-20T08:17:31.435Z,11.97
2019-04-20T08:20:04.350Z,11.88
2019-04-20T08:22:47.987Z,13.38
2019-04-20T08:25:16.216Z,12.93
2019-04-20T08:28:06.411Z,11.12
2019-04-20T08:31:00.604Z,11.63
2019-04-20T08:34:02.844Z,11.63
2019-04-20T08:36:33.263Z,10.90
2019-04-20T08:39:19.948Z,10.98
2019-04-20T08:41:50.367Z,10.15
2019-04-20T08:47:20.593Z,8.28
2019-04-20T08:50:15.977Z,10.78
2019-04-20T08:53:08.986Z,10.82
2019-04-20T08:55:29.784Z,8.65
2019-04-20T08:57:51.597Z,8.85
2019-04-20T09:00:37.082Z,8.33
2019-04-20T09:03:17.095Z,8.95
2019-04-20T09:06:00.478Z,9.03
2019-04-20T09:08:36.719Z,9.08
2019-04-20T09:11:23.255Z,8.43
2019-04-20T09:13:51.930Z,9.45
2019-04-20T09:16:32.879Z,8.93
2019-04-20T09:19:09.357Z,8.05
2019-04-20T09:21:53.058Z,9.55
2019-04-20T09:24:47.383Z,8.08
2019-04-20T09:27:18.385Z,6.50
2019-04-20T09:30:01.988Z,6.40
2019-04-20T09:32:48.889Z,6.50
2019-04-20T09:35:36.094Z,6.62
2019-04-20T09:38:18.055Z,6.62
2019-04-20T09:40:55.503Z,6.12
2019-04-20T09:43:32.318Z,6.30
2019-04-20T09:46:10.266Z,6.20
2019-04-20T09:48:54.735Z,6.57
2019-04-20T09:51:45.774Z,6.25
2019-04-20T09:54:27.032Z,7.42
2019-04-20T09:57:09.106Z,7.67
2019-04-20T09:59:52.051Z,7.30
2019-04-20T10:02:16.823Z,5.95
2019-04-20T10:04:47.341Z,8.03
2019-04-20T10:07:28.692Z,6.40
2019-04-20T10:10:19.056Z,7.07
2019-04-20T10:12:46.438Z,7.13
2019-04-20T10:15:27.613Z,6.53
2019-04-20T10:18:03.725Z,7.15
2019-04-20T10:20:43.449Z,7.28
2019-04-20T10:23:20.787Z,7.30
2019-04-20T10:25:58.703Z,7.05
2019-04-20T10:28:37.369Z,8.45
2019-04-20T10:31:16.762Z,7.67
2019-04-20T10:33:55.742Z,6.92
2019-04-20T10:36:41.722Z,7.27
2019-04-20T10:39:22.494Z,7.40
2019-04-20T10:42:03.778Z,8.60
2019-04-20T10:44:39.017Z,8.60
2019-04-20T10:47:21.066Z,9.75
2019-04-20T10:50:00.857Z,7.85
2019-04-20T10:52:38.199Z,8.00
2019-04-20T10:55:27.383Z,8.35
2019-04-20T10:58:04.623Z,7.83
2019-04-20T11:00:44.011Z,9.00
2019-04-20T11:03:22.795Z,8.03
2019-04-20T11:06:00.697Z,8.27
2019-04-20T11:08:38.392Z,10.43
2019-04-20T11:11:22.845Z,7.78
2019-04-20T11:13:55.337Z,7.87
2019-04-20T11:16:32.843Z,9.08
2019-04-20T11:19:11.503Z,8.88
2019-04-20T11:21:50.177Z,7.78
2019-04-20T11:24:28.091Z,7.10
2019-04-20T11:27:06.100Z,7.03
2019-04-20T11:29:44.400Z,7.60
2019-04-20T11:32:24.194Z,7.13
2019-04-20T11:35:11.417Z,7.75
2019-04-20T11:37:42.863Z,7.28
2019-04-20T11:40:21.123Z,7.95
2019-04-20T11:42:59.541Z,8.00
2019-04-20T11:45:38.520Z,7.50
2019-04-20T11:48:16.488Z,7.05
2019-04-20T11:50:53.834Z,7.40
2019-04-20T11:53:32.263Z,8.13
2019-04-20T11:56:16.909Z,8.10
2019-04-20T11:58:50.851Z,8.10
2019-04-20T12:01:47.587Z,7.87
2019-04-20T12:04:33.336Z,7.42
2019-04-20T12:06:59.048Z,7.70
2019-04-20T12:09:37.717Z,7.92
2019-04-20T12:12:28.977Z,7.55
2019-04-20T12:14:55.258Z,8.58
2019-04-20T12:17:33.784Z,8.05
2019-04-20T12:20:11.120Z,7.97
2019-04-20T12:22:50.354Z,8.00
2019-04-20T12:25:28.213Z,7.85
2019-04-20T12:28:07.519Z,7.67
2019-04-20T12:30:45.954Z,8.10
2019-04-20T12:33:24.369Z,8.00
2019-04-20T12:36:02.519Z,7.62
2019-04-20T12:38:41.206Z,8.13
2019-04-20T12:41:31.086Z,7.53
2019-04-20T12:43:57.741Z,6.90
2019-04-20T12:46:36.004Z,8.60
2019-04-20T12:49:13.951Z,14.00
2019-04-20T12:51:57.557Z,7.42
2019-04-20T12:54:30.274Z,7.33
2019-04-20T12:57:08.826Z,6.92
2019-04-20T12:59:49.069Z,7.70
2019-04-20T13:02:27.288Z,7.65
2019-04-20T13:05:07.231Z,7.00
2019-04-20T13:07:48.225Z,7.20
2019-04-20T13:10:23.591Z,7.60
2019-04-20T13:13:02.638Z,7.40
2019-04-20T13:16:00.912Z,7.12
2019-04-20T13:18:41.142Z,7.53
2019-04-20T13:21:20.943Z,6.90
2019-04-20T13:23:58.682Z,6.83
2019-04-20T13:26:37.261Z,6.50
2019-04-20T13:29:15.016Z,6.87
2019-04-20T13:31:53.748Z,7.60
2019-04-20T13:34:31.998Z,6.58
2019-04-20T13:37:10.579Z,7.33
2019-04-20T13:39:49.030Z,7.40
2019-04-20T13:42:29.632Z,7.45
2019-04-20T13:45:08.663Z,8.00
2019-04-20T13:47:48.684Z,8.63
2019-04-20T13:50:34.010Z,6.78
2019-04-20T13:53:11.614Z,7.92
2019-04-20T13:55:49.843Z,9.05
2019-04-20T13:58:45.702Z,7.33
2019-04-20T14:01:34.757Z,7.22
2019-04-20T14:04:14.805Z,7.37
2019-04-20T14:06:53.355Z,8.43
2019-04-20T14:09:31.282Z,8.23
2019-04-20T14:12:20.064Z,9.30
2019-04-20T14:14:48.841Z,7.10
2019-04-20T14:17:26.928Z,7.10
2019-04-20T14:20:11.854Z,10.20
2019-04-20T14:22:45.191Z,6.00
2019-04-20T14:25:22.836Z,6.97
2019-04-20T14:28:00.862Z,5.78
2019-04-20T14:30:38.148Z,6.67
2019-04-20T14:33:17.184Z,7.22
2019-04-20T14:35:54.793Z,6.55
2019-04-20T14:38:33.919Z,6.92
2019-04-20T14:41:12.593Z,6.03
2019-04-20T14:43:51.136Z,6.28
2019-04-20T14:46:29.530Z,7.30
2019-04-20T14:49:07.688Z,6.45
2019-04-20T14:51:57.546Z,6.07
2019-04-20T14:54:35.443Z,6.60
2019-04-20T14:57:19.329Z,6.62
2019-04-20T15:00:23.621Z,6.15
2019-04-20T15:03:03.839Z,5.45
2019-04-20T15:05:41.440Z,6.80
2019-04-20T15:08:20.645Z,5.40
2019-04-20T15:11:01.007Z,5.07
2019-04-20T15:13:38.728Z,5.35
2019-04-20T15:16:16.934Z,5.40
2019-04-20T15:18:59.877Z,5.20
2019-04-20T15:21:49.469Z,4.87
2019-04-20T15:24:29.373Z,5.30
2019-04-20T15:27:10.697Z,4.30
2019-04-20T15:29:48.597Z,4.00
2019-04-20T15:32:27.021Z,4.55
2019-04-20T15:35:07.105Z,4.70
2019-04-20T15:37:45.321Z,3.98
2019-04-20T15:40:23.505Z,3.90
2019-04-20T15:43:08.327Z,3.33
2019-04-20T15:45:41.134Z,3.42
2019-04-20T15:48:19.761Z,3.70
2019-04-20T15:50:58.170Z,3.67
2019-04-20T15:53:37.604Z,3.40
2019-04-20T15:56:16.549Z,3.35
2019-04-20T15:58:54.554Z,3.60
2019-04-20T16:01:36.725Z,3.62
2019-04-20T16:04:36.117Z,3.83
2019-04-20T16:07:12.973Z,3.20
2019-04-20T16:09:51.617Z,3.20
2019-04-20T16:12:30.987Z,3.42
2019-04-20T16:15:09.487Z,3.15
2019-04-20T16:17:50.861Z,3.72
2019-04-20T16:20:28.521Z,3.40
2019-04-20T16:23:04.797Z,3.20
2019-04-20T16:25:55.598Z,2.93
2019-04-20T16:28:32.916Z,3.13
2019-04-20T16:31:13.540Z,3.50
2019-04-20T16:33:50.582Z,2.80
2019-04-20T16:36:30.259Z,4.40
2019-04-20T16:39:11.115Z,4.00
2019-04-20T16:41:48.705Z,3.73
2019-04-20T16:44:27.217Z,3.23
2019-04-20T16:47:14.236Z,3.97
2019-04-20T16:49:50.938Z,3.47
2019-04-20T16:52:28.784Z,4.00
2019-04-20T16:55:06.437Z,3.20
2019-04-20T16:57:47.956Z,2.63
2019-04-20T17:00:23.268Z,2.50
2019-04-20T17:03:00.881Z,2.40
2019-04-20T17:05:49.404Z,2.71
2019-04-20T17:08:27.051Z,2.50
2019-04-20T17:11:05.492Z,2.90
2019-04-20T17:13:49.424Z,2.80
2019-04-20T17:16:21.912Z,4.03
2019-04-20T17:18:59.648Z,5.27
2019-04-20T17:21:37.365Z,5.33
2019-04-20T17:24:15.617Z,7.57
2019-04-20T17:26:55.004Z,4.27
2019-04-20T17:29:36.713Z,3.80
2019-04-20T17:32:16.223Z,3.53
2019-04-20T17:35:09.206Z,3.67
2019-04-20T17:37:39.275Z,3.33
2019-04-20T17:40:35.746Z,3.67
2019-04-20T17:43:02.652Z,4.10
2019-04-20T17:45:41.976Z,3.50
2019-04-20T17:48:23.365Z,3.70
2019-04-20T17:51:13.942Z,3.70
2019-04-20T17:53:37.688Z,5.17
2019-04-20T17:56:10.381Z,4.70
2019-04-20T17:58:48.009Z,4.27
2019-04-20T18:01:48.917Z,4.07
2019-04-20T18:04:48.784Z,4.33
2019-04-20T18:07:18.322Z,4.60
2019-04-20T18:09:59.710Z,3.77
2019-04-20T18:12:26.840Z,6.50
2019-04-20T18:15:16.847Z,11.97
2019-04-20T18:18:12.340Z,15.07
2019-04-20T18:20:42.787Z,11.57
2019-04-20T18:23:27.447Z,9.73
2019-04-20T18:26:22.712Z,7.77
2019-04-20T18:29:03.599Z,6.37
2019-04-20T18:31:26.679Z,5.47
2019-04-20T18:34:14.015Z,4.93
2019-04-20T18:36:47.781Z,5.27
2019-04-20T18:39:38.399Z,5.43
2019-04-20T18:42:13.109Z,6.13
2019-04-20T18:45:07.423Z,5.60
2019-04-20T18:47:45.677Z,6.27
2019-04-20T18:50:17.336Z,4.80
2019-04-20T18:52:49.662Z,5.37
2019-04-20T18:55:33.287Z,4.70
2019-04-20T18:58:07.020Z,5.07
2019-04-20T19:00:50.157Z,5.27
2019-04-20T19:03:32.299Z,6.50
2019-04-20T19:06:05.530Z,7.67
2019-04-20T19:08:49.421Z,6.07
2019-04-20T19:11:24.126Z,5.97
2019-04-20T19:14:14.285Z,5.70
2019-04-20T19:16:55.392Z,6.50
2019-04-20T19:19:36.739Z,6.13
2019-04-20T19:22:06.121Z,6.27
2019-04-20T19:24:44.994Z,5.47
2019-04-20T19:27:32.060Z,5.57
2019-04-20T19:30:16.863Z,5.47
2019-04-20T19:33:00.820Z,5.30
2019-04-20T19:35:33.967Z,4.93
2019-04-20T19:38:10.333Z,5.93
2019-04-20T19:40:51.268Z,7.07
2019-04-20T19:43:30.725Z,8.00
2019-04-20T19:46:39.681Z,8.57
2019-04-20T19:48:51.877Z,7.83
2019-04-20T19:51:40.866Z,7.80
2019-04-20T19:54:22.735Z,7.63
2019-04-20T19:56:48.597Z,7.97
2019-04-20T19:59:26.024Z,6.73
2019-04-20T20:01:55.861Z,7.20
2019-04-20T20:04:48.628Z,7.70
2019-04-20T20:07:28.699Z,8.37
2019-04-20T20:10:02.304Z,8.13
2019-04-20T20:12:39.855Z,7.10
2019-04-20T20:15:24.278Z,6.57
2019-04-20T20:18:15.307Z,7.13
2019-04-20T20:20:55.440Z,7.57
2019-04-20T20:23:16.467Z,7.23
2019-04-20T20:25:57.051Z,8.80
2019-04-20T20:28:43.619Z,8.67
2019-04-20T20:31:23.332Z,10.83
2019-04-20T20:34:03.356Z,9.37
2019-04-20T20:36:43.733Z,11.27
2019-04-20T20:39:18.168Z,12.13
2019-04-20T20:42:01.668Z,8.23
2019-04-20T20:44:42.830Z,8.13
2019-04-20T20:47:31.691Z,8.47
2019-04-20T20:50:12.999Z,7.70
2019-04-20T20:52:44.033Z,7.30
2019-04-20T20:55:18.216Z,9.43
2019-04-20T20:57:56.334Z,8.10
2019-04-20T21:00:37.208Z,7.83
2019-04-20T21:03:08.770Z,7.50
2019-04-20T21:05:42.879Z,7.80
2019-04-20T21:08:21.636Z,7.17
2019-04-20T21:11:00.148Z,7.40
2019-04-20T21:13:40.208Z,6.63
2019-04-20T21:16:23.229Z,8.87
2019-04-20T21:19:17.239Z,7.67
2019-04-20T21:21:50.463Z,7.60
2019-04-20T21:24:39.799Z,7.63
2019-04-20T21:27:21.614Z,7.43
2019-04-20T21:30:02.135Z,6.87
2019-04-20T21:32:45.735Z,7.73
2019-04-20T21:35:19.838Z,8.20
2019-04-20T21:38:04.449Z,7.90
2019-04-20T21:40:42.675Z,7.83
2019-04-20T21:43:16.285Z,7.93
2019-04-20T21:45:59.438Z,8.03
2019-04-20T21:48:49.166Z,7.27
2019-04-20T21:51:25.773Z,8.07
2019-04-20T21:53:51.660Z,8.07
2019-04-20T21:56:30.090Z,8.77
2019-04-20T21:59:16.422Z,8.93
2019-04-20T22:01:55.013Z,7.87
2019-04-20T22:04:25.536Z,9.33
2019-04-20T22:07:02.853Z,8.40
2019-04-20T22:09:45.587Z,11.07
2019-04-20T22:12:20.121Z,8.83
2019-04-20T22:15:05.468Z,8.93
2019-04-20T22:17:39.818Z,9.17
2019-04-20T22:20:32.192Z,9.00
2019-04-20T22:23:13.019Z,8.33
2019-04-20T22:25:56.517Z,8.83
2019-04-20T22:28:18.161Z,9.67
2019-04-20T22:30:55.812Z,8.37
2019-04-20T22:33:41.217Z,8.10
2019-04-20T22:36:18.341Z,7.53
2019-04-20T22:39:09.605Z,8.67
2019-04-20T22:41:53.700Z,7.87
2019-04-20T22:44:32.108Z,8.20
2019-04-20T22:47:14.999Z,7.50
2019-04-20T22:50:11.872Z,8.83
2019-04-20T22:52:42.905Z,8.87
2019-04-20T22:55:48.815Z,9.30
2019-04-20T22:58:00.458Z,9.33
2019-04-20T23:00:36.535Z,9.83
2019-04-20T23:03:07.079Z,10.70
2019-04-20T23:05:44.899Z,10.67
2019-04-20T23:08:22.416Z,11.40
2019-04-20T23:11:02.587Z,13.83
2019-04-20T23:13:41.902Z,13.27
2019-04-20T23:16:17.663Z,11.93
2019-04-20T23:18:56.128Z,11.97
2019-04-20T23:21:34.070Z,11.47
2019-04-20T23:24:14.575Z,11.23
2019-04-20T23:26:53.059Z,11.03
2019-04-20T23:29:36.058Z,11.20
2019-04-20T23:32:12.093Z,12.07
2019-04-20T23:34:56.072Z,14.20
2019-04-20T23:37:31.547Z,13.77
2019-04-20T23:40:10.069Z,11.60
2019-04-20T23:42:51.614Z,11.40
2019-04-20T23:45:38.786Z,12.20
2019-04-20T23:48:28.334Z,12.40
2019-04-20T23:51:17.697Z,13.27
2019-04-20T23:53:53.899Z,13.10
2019-04-20T23:56:22.034Z,13.10
2019-04-20T23:58:59.785Z,12.07
